Time;durP1;ratioP1;P1;durP2;ratioP2;P2;SDS_P1;SDS_P2;PMS_P1;PMS_P2;Temp;Humidity;BMP_temperature;BMP_pressure;BME280_temperature;BME280_humidity;BME280_pressure;Samples;Min_cycle;Max_cycle;Signal;HPM_P1;HPM_P2
2022/04/06 00:01:48;;;;;;;0.30;0.30;;;11.00;99.90;;;;;;4987907;28;20188;-82
2022/04/06 00:04:14;;;;;;;0.37;0.37;;;11.00;99.90;;;;;;4987686;28;20275;-83
2022/04/06 00:06:39;;;;;;;0.33;0.33;;;11.00;99.90;;;;;;4986633;28;20664;-82
2022/04/06 00:09:05;;;;;;;0.37;0.37;;;11.00;99.90;;;;;;4986740;28;20262;-82
2022/04/06 00:11:31;;;;;;;0.53;0.40;;;11.00;99.90;;;;;;4987487;28;20263;-83
2022/04/06 00:13:57;;;;;;;1.10;0.23;;;11.00;99.90;;;;;;4987652;28;20368;-82
2022/04/06 00:16:23;;;;;;;0.40;0.40;;;10.90;99.90;;;;;;4978329;28;20194;-82
2022/04/06 00:18:49;;;;;;;0.40;0.37;;;10.90;99.90;;;;;;4987386;28;20214;-82
2022/04/06 00:21:15;;;;;;;0.10;0.10;;;10.90;99.90;;;;;;4987147;28;20199;-83
2022/04/06 00:23:41;;;;;;;0.30;0.30;;;10.90;99.90;;;;;;4985829;28;20214;-82
2022/04/06 00:26:06;;;;;;;0.93;0.50;;;10.90;99.90;;;;;;4985932;28;20222;-83
2022/04/06 00:28:32;;;;;;;0.43;0.30;;;10.90;99.90;;;;;;4987492;28;20180;-82
2022/04/06 00:30:58;;;;;;;0.10;0.10;;;10.90;99.90;;;;;;4986432;28;20191;-83
2022/04/06 00:33:23;;;;;;;1.70;0.53;;;10.90;99.90;;;;;;4986940;28;20185;-82
2022/04/06 00:35:50;;;;;;;0.87;0.20;;;10.90;99.90;;;;;;4986034;28;20230;-83
2022/04/06 00:38:16;;;;;;;0.40;0.40;;;10.90;99.90;;;;;;4986343;28;20195;-83
2022/04/06 00:40:42;;;;;;;0.10;0.10;;;10.90;99.90;;;;;;4984879;28;20207;-82
2022/04/06 00:43:12;;;;;;;1.60;0.27;;;10.90;99.90;;;;;;4986895;28;20203;-83
2022/04/06 00:45:39;;;;;;;0.23;0.23;;;10.90;99.90;;;;;;4985778;28;20247;-82
2022/04/06 00:48:06;;;;;;;0.10;0.10;;;10.90;99.90;;;;;;4987684;28;20196;-83
2022/04/06 00:50:32;;;;;;;0.40;0.23;;;10.90;99.90;;;;;;4986157;28;20187;-82
2022/04/06 00:52:58;;;;;;;0.17;0.13;;;10.90;99.90;;;;;;4987306;28;20226;-82
2022/04/06 00:55:33;;;;;;;0.30;0.30;;;10.90;99.90;;;;;;4986176;28;20633;-83
2022/04/06 00:57:59;;;;;;;0.30;0.30;;;11.00;99.90;;;;;;4986113;28;20194;-83
2022/04/06 01:00:25;;;;;;;0.20;0.20;;;11.00;99.90;;;;;;4986909;28;20220;-83
2022/04/06 01:02:51;;;;;;;0.10;0.10;;;10.90;99.90;;;;;;4985662;28;20789;-82
2022/04/06 01:05:17;;;;;;;0.20;0.20;;;10.90;99.90;;;;;;4985890;28;20226;-82
2022/04/06 01:07:47;;;;;;;0.10;0.10;;;10.90;99.90;;;;;;4985490;28;20205;-83
2022/04/06 01:10:13;;;;;;;0.57;0.20;;;11.00;99.90;;;;;;4986321;28;20242;-82
2022/04/06 01:12:39;;;;;;;0.33;0.33;;;11.00;99.90;;;;;;4985797;28;20187;-82
2022/04/06 01:15:05;;;;;;;0.30;0.30;;;11.00;99.90;;;;;;4986493;28;20276;-83
2022/04/06 01:17:33;;;;;;;0.40;0.40;;;11.10;99.90;;;;;;4987569;28;20609;-82
2022/04/06 01:20:00;;;;;;;0.63;0.40;;;11.10;99.90;;;;;;4985303;28;20200;-82
2022/04/06 01:22:26;;;;;;;0.40;0.40;;;11.10;99.90;;;;;;4986250;28;20202;-82
2022/04/06 01:24:52;;;;;;;0.23;0.23;;;11.10;99.90;;;;;;4978995;28;20218;-83
2022/04/06 01:27:18;;;;;;;0.40;0.40;;;11.10;99.90;;;;;;4986370;28;20191;-82
2022/04/06 01:29:44;;;;;;;0.87;0.60;;;11.10;99.90;;;;;;4986952;28;21209;-82
2022/04/06 01:32:13;;;;;;;0.20;0.20;;;11.10;99.90;;;;;;4987700;28;20653;-82
2022/04/06 01:34:40;;;;;;;0.20;0.20;;;11.10;99.90;;;;;;4985862;28;20221;-82
2022/04/06 01:37:07;;;;;;;0.30;0.30;;;11.10;99.90;;;;;;4986595;28;20192;-83
2022/04/06 01:39:34;;;;;;;0.60;0.33;;;11.10;99.90;;;;;;4985148;28;20274;-83
2022/04/06 01:42:01;;;;;;;0.10;0.10;;;11.10;99.90;;;;;;4986189;28;20192;-82
2022/04/06 01:44:27;;;;;;;0.30;0.20;;;11.10;99.90;;;;;;4987198;28;20211;-83
2022/04/06 01:46:53;;;;;;;0.10;0.10;;;11.10;99.90;;;;;;4987705;28;20180;-82
2022/04/06 01:52:12;;;;;;;1.13;0.60;;;11.10;99.90;;;;;;4987018;28;20275;-83
2022/04/06 01:54:42;;;;;;;0.27;0.27;;;11.10;99.90;;;;;;4987796;28;20303;-82
2022/04/06 01:57:08;;;;;;;0.30;0.30;;;11.10;99.90;;;;;;4990877;28;20186;-82
2022/04/06 01:59:34;;;;;;;0.40;0.40;;;11.10;99.90;;;;;;4988844;28;20186;-82
2022/04/06 02:02:00;;;;;;;0.77;0.37;;;11.10;99.90;;;;;;4990625;28;20187;-83
2022/04/06 02:04:25;;;;;;;0.20;0.20;;;11.10;99.90;;;;;;4988416;28;20739;-83
2022/04/06 02:06:51;;;;;;;0.33;0.20;;;11.10;99.90;;;;;;4988651;28;20180;-83
2022/04/06 02:09:18;;;;;;;0.37;0.37;;;11.10;99.90;;;;;;4988640;28;20187;-82
2022/04/06 02:11:44;;;;;;;0.60;0.60;;;11.10;99.90;;;;;;5005513;28;20222;-81
2022/04/06 02:14:10;;;;;;;1.20;0.30;;;11.00;99.90;;;;;;4990989;28;20219;-82
2022/04/06 02:16:37;;;;;;;0.30;0.20;;;11.10;99.90;;;;;;4989631;28;20183;-82
2022/04/06 02:19:03;;;;;;;0.27;0.20;;;11.00;99.90;;;;;;4987984;28;20215;-81
2022/04/06 02:21:29;;;;;;;0.20;0.20;;;11.00;99.90;;;;;;4987970;28;20201;-82
2022/04/06 02:23:55;;;;;;;0.37;0.30;;;11.00;99.90;;;;;;4989880;28;20179;-82
2022/04/06 02:26:20;;;;;;;0.20;0.20;;;11.10;99.90;;;;;;4979616;28;20219;-82
2022/04/06 02:28:46;;;;;;;0.77;0.60;;;11.10;99.90;;;;;;4988189;28;20286;-82
2022/04/06 02:31:11;;;;;;;0.60;0.60;;;11.10;99.90;;;;;;4988640;28;20190;-82
2022/04/06 02:33:37;;;;;;;0.20;0.20;;;11.10;99.90;;;;;;4988745;28;20179;-82
2022/04/06 02:36:03;;;;;;;0.30;0.30;;;11.00;99.90;;;;;;4988337;28;20633;-82
2022/04/06 02:38:29;;;;;;;0.53;0.50;;;11.00;99.90;;;;;;4987897;28;20210;-82
2022/04/06 02:40:55;;;;;;;0.70;0.53;;;11.00;99.90;;;;;;4987786;28;20570;-82
2022/04/06 02:43:20;;;;;;;0.87;0.67;;;11.00;99.90;;;;;;4988619;28;20193;-82
2022/04/06 02:45:47;;;;;;;0.60;0.40;;;11.00;99.90;;;;;;4988114;28;20337;-81
2022/04/06 02:48:13;;;;;;;0.10;0.10;;;11.00;99.90;;;;;;4997090;28;20191;-82
2022/04/06 02:50:38;;;;;;;0.67;0.67;;;10.90;99.90;;;;;;4987541;28;20194;-82
2022/04/06 02:53:04;;;;;;;1.07;0.30;;;10.80;99.90;;;;;;4989091;28;20185;-81
2022/04/06 02:55:29;;;;;;;0.30;0.30;;;10.80;99.90;;;;;;4987383;28;20209;-81
2022/04/06 02:57:55;;;;;;;0.37;0.37;;;10.90;99.90;;;;;;4988653;28;20205;-82
2022/04/06 03:00:21;;;;;;;0.20;0.20;;;10.90;99.90;;;;;;4988471;28;20187;-83
2022/04/06 03:02:46;;;;;;;0.40;0.40;;;10.90;99.90;;;;;;4987334;28;20206;-82
2022/04/06 03:05:12;;;;;;;0.10;0.10;;;10.80;99.90;;;;;;4989021;28;20235;-82
2022/04/06 03:07:41;;;;;;;0.13;0.13;;;10.80;99.90;;;;;;4987833;28;20667;-82
2022/04/06 03:10:08;;;;;;;0.30;0.30;;;10.70;99.90;;;;;;4987471;28;20233;-82
2022/04/06 03:12:34;;;;;;;0.30;0.30;;;10.70;99.90;;;;;;4988226;28;20230;-82
2022/04/06 03:14:59;;;;;;;0.33;0.30;;;10.70;99.90;;;;;;5003644;28;20210;-82
2022/04/06 03:17:25;;;;;;;0.30;0.20;;;10.60;99.90;;;;;;4987910;28;20188;-82
2022/04/06 03:19:50;;;;;;;1.93;1.20;;;10.70;99.90;;;;;;4987956;28;20230;-82
2022/04/06 03:22:17;;;;;;;0.47;0.30;;;10.70;99.90;;;;;;4987622;28;20931;-82
2022/04/06 03:24:47;;;;;;;4.23;0.53;;;10.60;99.90;;;;;;4986373;28;20216;-81
2022/04/06 03:27:13;;;;;;;0.20;0.20;;;10.70;99.90;;;;;;4988205;28;20200;-81
2022/04/06 03:29:40;;;;;;;0.50;0.50;;;10.60;99.90;;;;;;4988406;28;20237;-82
2022/04/06 03:32:06;;;;;;;1.97;0.57;;;10.60;99.90;;;;;;4988588;28;20313;-81
2022/04/06 03:34:32;;;;;;;0.20;0.20;;;10.60;99.90;;;;;;4988057;28;20210;-82
2022/04/06 03:36:57;;;;;;;0.23;0.23;;;10.60;99.90;;;;;;4988005;28;20181;-82
2022/04/06 03:39:23;;;;;;;0.27;0.27;;;10.60;99.90;;;;;;4987269;28;20218;-82
2022/04/06 03:41:48;;;;;;;0.77;0.50;;;10.60;99.90;;;;;;4987720;28;20195;-82
2022/04/06 03:44:14;;;;;;;0.33;0.33;;;10.50;99.90;;;;;;4988057;28;20645;-82
2022/04/06 03:46:39;;;;;;;0.40;0.40;;;10.60;99.90;;;;;;4987229;28;20229;-82
2022/04/06 03:49:05;;;;;;;0.07;0.07;;;10.50;99.90;;;;;;4987754;28;20214;-82
2022/04/06 03:51:31;;;;;;;0.30;0.30;;;10.50;99.90;;;;;;4987783;28;20617;-81
2022/04/06 03:53:56;;;;;;;0.10;0.10;;;10.50;99.90;;;;;;4986224;28;20193;-82
2022/04/06 03:56:23;;;;;;;0.20;0.20;;;10.50;99.90;;;;;;4986805;28;20217;-82
2022/04/06 03:58:48;;;;;;;0.40;0.40;;;10.50;99.90;;;;;;4987774;28;20191;-82
2022/04/06 04:01:14;;;;;;;1.13;0.80;;;10.60;99.90;;;;;;4980050;28;20199;-82
2022/04/06 04:03:40;;;;;;;0.47;0.47;;;10.50;99.90;;;;;;4986865;28;20267;-82
2022/04/06 04:06:06;;;;;;;2.63;0.63;;;10.50;99.90;;;;;;4986155;28;20240;-82
2022/04/06 04:08:32;;;;;;;0.10;0.10;;;10.50;99.90;;;;;;4986562;28;20202;-82
2022/04/06 04:10:57;;;;;;;0.10;0.10;;;10.50;99.90;;;;;;4986758;28;20215;-81
2022/04/06 04:13:23;;;;;;;0.17;0.17;;;10.50;99.90;;;;;;4985943;28;20191;-82
2022/04/06 04:15:49;;;;;;;0.27;0.27;;;10.50;99.90;;;;;;4987174;28;20209;-82
2022/04/06 04:18:15;;;;;;;0.30;0.30;;;10.50;99.90;;;;;;4986471;28;20193;-82
2022/04/06 04:20:45;;;;;;;4.20;0.60;;;10.50;99.90;;;;;;4985991;28;20192;-82
2022/04/06 04:23:10;;;;;;;0.30;0.30;;;10.40;99.90;;;;;;4987123;28;20556;-82
2022/04/06 04:25:36;;;;;;;0.10;0.10;;;10.40;99.90;;;;;;4986168;28;20207;-81
2022/04/06 04:28:02;;;;;;;0.97;0.33;;;10.40;99.90;;;;;;5003063;28;20686;-82
2022/04/06 04:30:28;;;;;;;4.27;0.40;;;10.40;99.90;;;;;;4986675;28;20211;-82
2022/04/06 04:32:53;;;;;;;0.17;0.17;;;10.40;99.90;;;;;;4986227;28;20194;-81
2022/04/06 04:35:19;;;;;;;0.10;0.10;;;10.40;99.90;;;;;;4988402;28;20230;-82
2022/04/06 04:37:44;;;;;;;0.10;0.10;;;10.40;99.90;;;;;;4986942;28;20184;-82
2022/04/06 04:40:10;;;;;;;0.30;0.30;;;10.40;99.90;;;;;;4986826;28;20276;-82
2022/04/06 04:42:36;;;;;;;0.30;0.30;;;10.40;99.90;;;;;;4985464;28;20569;-82
2022/04/06 04:45:04;;;;;;;0.20;0.20;;;10.50;99.90;;;;;;4987744;28;20211;-82
2022/04/06 04:47:33;;;;;;;0.17;0.17;;;10.50;99.90;;;;;;4988463;28;20207;-81
2022/04/06 04:49:58;;;;;;;0.40;0.40;;;10.50;99.90;;;;;;4986604;28;20792;-82
2022/04/06 04:52:24;;;;;;;0.60;0.30;;;10.50;99.90;;;;;;4986249;28;20211;-82
2022/04/06 04:54:50;;;;;;;0.10;0.10;;;10.50;99.90;;;;;;4986531;28;20218;-81
2022/04/06 04:57:16;;;;;;;0.30;0.30;;;10.50;99.90;;;;;;4986745;28;20209;-81
2022/04/06 04:59:41;;;;;;;0.17;0.17;;;10.50;99.90;;;;;;4988000;28;20186;-82
2022/04/06 05:02:07;;;;;;;0.53;0.33;;;10.50;99.90;;;;;;4988806;28;20203;-82
2022/04/06 05:04:32;;;;;;;0.53;0.53;;;10.50;99.90;;;;;;4985318;28;20211;-82
2022/04/06 05:06:58;;;;;;;0.40;0.40;;;10.50;99.90;;;;;;4985695;28;20645;-81
2022/04/06 05:09:23;;;;;;;0.40;0.40;;;10.50;99.90;;;;;;4986595;28;20184;-81
2022/04/06 05:11:49;;;;;;;0.30;0.30;;;10.50;99.90;;;;;;4978247;28;20190;-81
2022/04/06 05:14:14;;;;;;;0.43;0.20;;;10.50;99.90;;;;;;4987735;28;20587;-81
2022/04/06 05:16:40;;;;;;;0.13;0.13;;;10.50;99.90;;;;;;4985973;28;20191;-82
2022/04/06 05:19:05;;;;;;;0.37;0.37;;;10.50;99.90;;;;;;4986787;28;20189;-81
2022/04/06 05:21:31;;;;;;;0.10;0.10;;;10.50;99.90;;;;;;4987477;28;20198;-80
2022/04/06 05:23:57;;;;;;;0.23;0.23;;;10.50;99.90;;;;;;4987496;28;20187;-80
2022/04/06 05:26:23;;;;;;;0.20;0.20;;;10.50;99.90;;;;;;4987455;28;20298;-79
2022/04/06 05:28:49;;;;;;;0.20;0.20;;;10.50;99.90;;;;;;4985626;28;21909;-79
2022/04/06 05:31:14;;;;;;;0.53;0.40;;;10.50;99.90;;;;;;4988466;28;20269;-79
2022/04/06 05:33:40;;;;;;;0.73;0.73;;;10.60;99.90;;;;;;4989741;28;20187;-81
2022/04/06 05:36:06;;;;;;;0.40;0.30;;;10.50;99.90;;;;;;4987381;28;20230;-80
2022/04/06 05:38:34;;;;;;;0.30;0.30;;;10.50;99.90;;;;;;4989265;28;20191;-80
2022/04/06 05:41:02;;;;;;;4.20;0.40;;;10.50;99.90;;;;;;4990247;28;20207;-81
2022/04/06 05:43:28;;;;;;;0.43;0.30;;;10.50;99.90;;;;;;4991523;28;20183;-81
2022/04/06 05:45:54;;;;;;;0.20;0.20;;;10.60;99.90;;;;;;4995280;28;20730;-80
2022/04/06 05:48:19;;;;;;;0.20;0.20;;;10.60;99.90;;;;;;4999393;28;20201;-81
2022/04/06 05:50:45;;;;;;;0.53;0.47;;;10.60;99.90;;;;;;4994665;28;20181;-81
2022/04/06 05:53:11;;;;;;;0.27;0.27;;;10.60;99.90;;;;;;4997500;28;20198;-81
2022/04/06 05:55:36;;;;;;;0.10;0.10;;;10.60;99.90;;;;;;4996211;28;20211;-81
2022/04/06 05:58:02;;;;;;;0.50;0.50;;;10.70;99.90;;;;;;4996122;28;20187;-81
2022/04/06 06:00:28;;;;;;;0.10;0.10;;;10.60;99.90;;;;;;4995805;28;20190;-81
2022/04/06 06:02:53;;;;;;;0.87;0.30;;;10.70;99.90;;;;;;4995504;28;20191;-81
2022/04/06 06:05:19;;;;;;;1.17;0.73;;;10.70;99.90;;;;;;4992927;28;20219;-81
2022/04/06 06:07:45;;;;;;;0.77;0.73;;;10.70;99.90;;;;;;4995030;28;20621;-80
2022/04/06 06:10:11;;;;;;;0.20;0.20;;;10.70;99.90;;;;;;4995330;28;20183;-80
2022/04/06 06:12:36;;;;;;;0.33;0.33;;;10.80;99.90;;;;;;4995687;28;20185;-81
2022/04/06 06:15:09;;;;;;;0.93;0.30;;;10.80;99.90;;;;;;4995093;28;20287;-80
2022/04/06 06:17:38;;;;;;;0.40;0.40;;;10.80;99.90;;;;;;4996774;28;20621;-81
2022/04/06 06:20:05;;;;;;;0.10;0.10;;;10.90;99.90;;;;;;4994217;28;20605;-81
2022/04/06 06:22:31;;;;;;;0.33;0.20;;;11.00;99.90;;;;;;4989788;28;20237;-81
2022/04/06 06:24:56;;;;;;;0.67;0.33;;;11.00;99.90;;;;;;4988276;28;20227;-81
2022/04/06 06:27:23;;;;;;;0.90;0.90;;;11.00;99.90;;;;;;4991124;28;20270;-81
2022/04/06 06:29:49;;;;;;;0.30;0.30;;;11.10;99.90;;;;;;4989335;28;20207;-81
2022/04/06 06:32:14;;;;;;;0.20;0.20;;;11.10;99.90;;;;;;4988351;28;20622;-80
2022/04/06 06:34:40;;;;;;;0.20;0.20;;;11.20;99.90;;;;;;4990345;28;20237;-81
2022/04/06 06:37:06;;;;;;;0.87;0.77;;;11.20;99.90;;;;;;4992855;28;20200;-81
2022/04/06 06:39:31;;;;;;;0.30;0.30;;;11.20;99.90;;;;;;4989739;28;20297;-81
2022/04/06 06:41:57;;;;;;;2.30;2.10;;;11.10;99.90;;;;;;4993427;28;20192;-80
2022/04/06 06:44:23;;;;;;;0.20;0.20;;;11.20;99.90;;;;;;4988046;28;20776;-80
2022/04/06 06:46:48;;;;;;;0.30;0.30;;;11.30;99.90;;;;;;4990729;28;20235;-80
2022/04/06 06:49:15;;;;;;;0.30;0.30;;;11.30;99.90;;;;;;4988719;28;20287;-80
2022/04/06 06:51:41;;;;;;;0.20;0.20;;;11.30;99.90;;;;;;4989202;28;20186;-81
2022/04/06 06:54:07;;;;;;;0.40;0.40;;;11.40;99.90;;;;;;4987143;28;20555;-80
2022/04/06 06:56:33;;;;;;;0.57;0.17;;;11.40;99.90;;;;;;4998459;28;20184;-80
2022/04/06 06:58:59;;;;;;;0.20;0.20;;;11.50;99.90;;;;;;4997680;28;20196;-80
2022/04/06 07:01:25;;;;;;;0.10;0.10;;;11.50;99.90;;;;;;4999091;28;20202;-80
2022/04/06 07:03:50;;;;;;;1.27;0.30;;;11.50;99.90;;;;;;4996691;28;20190;-80
2022/04/06 07:06:16;;;;;;;0.63;0.50;;;11.40;99.90;;;;;;4995040;28;20224;-80
2022/04/06 07:08:42;;;;;;;0.20;0.20;;;11.50;99.90;;;;;;4995337;28;20255;-80
2022/04/06 07:11:08;;;;;;;0.33;0.30;;;11.40;99.90;;;;;;4995722;28;20232;-80
2022/04/06 07:13:33;;;;;;;0.10;0.10;;;11.50;99.90;;;;;;4997252;28;20190;-80
2022/04/06 07:15:59;;;;;;;0.43;0.43;;;11.50;99.90;;;;;;4995008;28;20631;-80
2022/04/06 07:18:24;;;;;;;0.20;0.20;;;11.50;99.90;;;;;;5003423;28;20292;-80
2022/04/06 07:20:50;;;;;;;0.23;0.23;;;11.40;99.90;;;;;;4997060;28;20250;-80
2022/04/06 07:23:16;;;;;;;3.50;0.50;;;11.40;99.90;;;;;;4993125;28;20436;-82
2022/04/06 07:25:41;;;;;;;0.47;0.37;;;11.50;99.90;;;;;;4996222;28;20548;-81
2022/04/06 07:28:07;;;;;;;0.20;0.20;;;11.50;99.90;;;;;;4995077;28;20203;-81
2022/04/06 07:30:33;;;;;;;1.73;1.70;;;11.50;99.90;;;;;;4994144;28;20196;-81
2022/04/06 07:32:59;;;;;;;0.20;0.20;;;11.50;99.90;;;;;;4993899;28;20267;-81
2022/04/06 07:35:25;;;;;;;0.50;0.50;;;11.50;99.90;;;;;;4996007;28;20241;-81
2022/04/06 07:37:51;;;;;;;0.10;0.10;;;11.60;99.90;;;;;;4991867;28;20195;-81
2022/04/06 07:40:23;;;;;;;0.73;0.73;;;11.60;99.90;;;;;;4987608;28;20571;-79
2022/04/06 07:42:50;;;;;;;0.20;0.20;;;11.70;99.90;;;;;;4996203;28;20714;-79
2022/04/06 07:45:17;;;;;;;0.10;0.10;;;11.80;99.90;;;;;;4989029;28;20219;-79
2022/04/06 07:47:44;;;;;;;0.63;0.43;;;11.80;99.90;;;;;;4988624;28;20194;-79
2022/04/06 07:50:12;;;;;;;0.30;0.30;;;11.90;99.90;;;;;;4986734;28;20190;-79
2022/04/06 07:52:38;;;;;;;0.50;0.50;;;11.90;99.90;;;;;;5002749;28;20203;-79
2022/04/06 07:55:06;;;;;;;1.40;1.07;;;12.00;99.90;;;;;;4980912;28;20250;-78
2022/04/06 07:57:32;;;;;;;0.10;0.10;;;12.10;99.90;;;;;;4980038;28;20202;-79
2022/04/06 08:00:00;;;;;;;0.53;0.53;;;12.10;99.90;;;;;;4992165;28;20196;-79
2022/04/06 08:02:26;;;;;;;0.30;0.20;;;12.20;99.90;;;;;;4984634;28;20187;-79
2022/04/06 08:04:51;;;;;;;0.27;0.27;;;12.20;99.90;;;;;;4983666;28;20241;-78
2022/04/06 08:07:17;;;;;;;0.63;0.50;;;12.20;99.90;;;;;;4984524;28;20208;-79
2022/04/06 08:09:43;;;;;;;0.20;0.20;;;12.20;99.90;;;;;;4987390;28;20715;-79
2022/04/06 08:12:09;;;;;;;0.30;0.30;;;12.40;99.90;;;;;;4987811;28;20203;-79
2022/04/06 08:14:34;;;;;;;0.50;0.50;;;12.40;99.90;;;;;;4987783;28;20206;-79
2022/04/06 08:17:00;;;;;;;0.37;0.37;;;12.50;99.90;;;;;;4987683;28;20270;-79
2022/04/06 08:19:27;;;;;;;2.37;0.80;;;12.50;99.90;;;;;;4987608;28;20263;-79
2022/04/06 08:21:53;;;;;;;1.10;1.10;;;12.50;99.90;;;;;;4986355;28;20644;-79
2022/04/06 08:24:19;;;;;;;0.37;0.37;;;12.60;99.90;;;;;;4987584;28;20178;-81
2022/04/06 08:26:45;;;;;;;0.47;0.20;;;12.70;99.90;;;;;;4987403;28;20715;-79
2022/04/06 08:29:11;;;;;;;0.20;0.20;;;12.70;99.90;;;;;;4985327;28;20184;-80
2022/04/06 08:31:37;;;;;;;0.33;0.27;;;12.70;99.90;;;;;;4983543;28;20190;-79
2022/04/06 08:34:06;;;;;;;0.30;0.30;;;12.80;99.90;;;;;;4983122;28;20186;-80
2022/04/06 08:36:35;;;;;;;0.10;0.10;;;12.70;99.90;;;;;;4984222;28;20205;-79
2022/04/06 08:39:02;;;;;;;0.30;0.13;;;12.80;99.90;;;;;;4985124;28;20192;-79
2022/04/06 08:41:29;;;;;;;0.60;0.40;;;12.80;99.90;;;;;;4984142;28;20855;-79
2022/04/06 08:43:58;;;;;;;0.60;0.57;;;12.80;99.90;;;;;;4985977;28;20197;-79
2022/04/06 08:46:25;;;;;;;0.57;0.40;;;12.80;99.90;;;;;;4984845;28;20222;-79
2022/04/06 08:48:51;;;;;;;0.53;0.53;;;12.90;99.90;;;;;;4983574;28;20303;-79
2022/04/06 08:51:18;;;;;;;3.20;0.50;;;12.90;99.90;;;;;;4985712;28;20188;-79
2022/04/06 08:53:45;;;;;;;0.10;0.10;;;13.00;99.90;;;;;;4984015;28;20187;-79
2022/04/06 08:56:14;;;;;;;0.27;0.27;;;13.30;99.90;;;;;;4984493;28;20225;-79
2022/04/06 08:58:41;;;;;;;0.30;0.30;;;13.50;99.90;;;;;;4986464;28;20190;-80
2022/04/06 09:01:07;;;;;;;0.30;0.30;;;13.30;99.90;;;;;;4985886;28;20240;-79
2022/04/06 09:03:34;;;;;;;0.10;0.10;;;13.20;99.90;;;;;;5002418;28;20192;-79
2022/04/06 09:06:05;;;;;;;0.20;0.20;;;13.20;99.90;;;;;;4988157;28;20223;-79
2022/04/06 09:08:43;;;;;;;0.20;0.20;;;13.30;99.90;;;;;;4989485;28;20711;-78
2022/04/06 09:11:10;;;;;;;0.20;0.20;;;13.40;99.90;;;;;;4989411;28;20187;-80
2022/04/06 09:13:37;;;;;;;0.20;0.20;;;13.40;99.90;;;;;;4989971;28;20239;-79
2022/04/06 09:16:04;;;;;;;1.60;1.40;;;13.50;99.90;;;;;;4988294;28;20239;-80
2022/04/06 09:18:48;;;;;;;0.40;0.40;;;13.40;99.90;;;;;;5004082;28;20246;-79
2022/04/06 09:21:16;;;;;;;0.30;0.30;;;13.40;99.90;;;;;;4987477;28;20183;-79
2022/04/06 09:23:45;;;;;;;0.40;0.27;;;13.50;99.90;;;;;;4987403;28;20189;-79
2022/04/06 09:26:11;;;;;;;0.20;0.20;;;13.40;99.90;;;;;;4988906;28;20222;-79
2022/04/06 09:28:45;;;;;;;0.20;0.20;;;13.40;99.90;;;;;;4988629;28;20278;-79
2022/04/06 09:31:16;;;;;;;0.30;0.30;;;13.20;99.90;;;;;;4988017;28;20194;-79
2022/04/06 09:33:43;;;;;;;0.10;0.10;;;13.20;99.90;;;;;;4987508;28;20675;-80
2022/04/06 09:36:19;;;;;;;1.30;0.50;;;13.30;99.90;;;;;;4989042;28;20237;-79
2022/04/06 09:38:48;;;;;;;1.90;0.30;;;13.30;99.90;;;;;;4988769;28;20183;-79
2022/04/06 09:41:19;;;;;;;4.23;0.80;;;13.20;99.90;;;;;;4987593;28;20194;-79
2022/04/06 09:43:45;;;;;;;0.23;0.23;;;13.30;99.90;;;;;;4979879;28;20182;-79
2022/04/06 09:49:10;;;;;;;0.33;0.33;;;13.20;99.90;;;;;;4987830;28;20758;-79
2022/04/06 09:51:38;;;;;;;0.10;0.10;;;13.20;99.90;;;;;;4987966;28;20208;-79
2022/04/06 09:54:05;;;;;;;0.40;0.40;;;13.30;99.90;;;;;;4987925;28;20305;-79
2022/04/06 09:56:32;;;;;;;0.20;0.20;;;13.20;99.90;;;;;;4989145;28;20199;-79
2022/04/06 09:58:59;;;;;;;0.23;0.23;;;13.20;99.90;;;;;;5004603;28;20187;-79
2022/04/06 10:01:36;;;;;;;0.67;0.30;;;13.10;99.90;;;;;;4987962;28;20553;-79
2022/04/06 10:04:04;;;;;;;0.30;0.30;;;13.20;99.90;;;;;;4987728;28;20229;-79
2022/04/06 10:06:37;;;;;;;0.60;0.53;;;13.10;99.90;;;;;;4988858;28;20242;-79
2022/04/06 10:09:14;;;;;;;0.13;0.13;;;13.10;99.90;;;;;;4987643;28;20180;-80
2022/04/06 10:11:40;;;;;;;2.27;0.33;;;13.30;99.90;;;;;;4987990;28;20184;-79
2022/04/06 10:14:08;;;;;;;0.30;0.30;;;13.50;99.90;;;;;;4987797;28;20209;-79
2022/04/06 10:16:36;;;;;;;0.63;0.43;;;13.70;99.90;;;;;;4988340;28;20667;-79
2022/04/06 10:19:07;;;;;;;1.07;0.47;;;13.60;99.90;;;;;;4989276;28;20172;-79
2022/04/06 10:21:41;;;;;;;0.10;0.10;;;13.50;99.90;;;;;;5004713;28;20183;-79
2022/04/06 10:24:26;;;;;;;0.30;0.30;;;13.60;99.90;;;;;;4989375;28;20759;-79
2022/04/06 10:27:06;;;;;;;4.27;0.30;;;13.80;99.90;;;;;;4988928;28;20286;-81
2022/04/06 10:29:31;;;;;;;0.40;0.30;;;13.90;99.90;;;;;;4989547;28;20199;-79
2022/04/06 10:31:57;;;;;;;0.50;0.50;;;13.90;99.90;;;;;;4989465;28;20559;-80
2022/04/06 10:34:30;;;;;;;0.23;0.23;;;13.80;99.90;;;;;;4981946;28;20215;-80
2022/04/06 10:37:10;;;;;;;0.30;0.30;;;13.90;99.90;;;;;;4983816;28;20223;-80
2022/04/06 10:39:54;;;;;;;1.33;0.50;;;13.80;99.90;;;;;;4985813;28;20241;-79
2022/04/06 10:42:34;;;;;;;1.07;1.07;;;13.90;99.90;;;;;;4986763;28;20731;-79
2022/04/06 10:45:01;;;;;;;0.20;0.20;;;14.00;99.90;;;;;;4987738;28;20273;-80
2022/04/06 10:47:29;;;;;;;1.67;0.50;;;13.80;99.90;;;;;;4987982;28;20196;-80
2022/04/06 10:50:15;;;;;;;0.93;0.77;;;14.00;99.90;;;;;;4988352;28;20648;-80
2022/04/06 10:52:43;;;;;;;0.60;0.60;;;13.90;99.90;;;;;;4987240;28;20190;-79
2022/04/06 10:55:20;;;;;;;2.97;0.33;;;13.90;99.90;;;;;;4987359;28;20209;-79
2022/04/06 10:58:02;;;;;;;15.43;0.70;;;13.80;99.90;;;;;;4985698;28;20342;-79
2022/04/06 11:00:29;;;;;;;0.10;0.10;;;14.10;99.90;;;;;;4986519;28;20230;-79
2022/04/06 11:03:13;;;;;;;0.10;0.10;;;14.30;99.90;;;;;;4987657;28;20195;-79
2022/04/06 11:05:49;;;;;;;1.40;0.50;;;14.00;99.90;;;;;;4987565;28;20239;-79
2022/04/06 11:11:47;;;;;;;0.40;0.40;;;14.10;99.90;;;;;;4987823;28;20333;-79
2022/04/06 11:14:23;;;;;;;0.30;0.30;;;14.00;99.90;;;;;;4986374;28;20641;-78
2022/04/06 11:16:48;;;;;;;0.40;0.40;;;14.00;99.90;;;;;;4979917;28;20183;-79
2022/04/06 11:19:14;;;;;;;0.27;0.27;;;14.10;99.90;;;;;;4986903;28;20261;-79
2022/04/06 11:21:55;;;;;;;0.67;0.67;;;14.30;99.90;;;;;;4987534;28;20194;-79
2022/04/06 11:24:27;;;;;;;0.50;0.50;;;14.40;99.90;;;;;;4986055;28;20188;-78
2022/04/06 11:26:52;;;;;;;0.37;0.37;;;14.30;99.90;;;;;;4984993;28;20207;-79
2022/04/06 11:29:19;;;;;;;0.20;0.20;;;14.40;99.90;;;;;;4986931;28;20176;-79
2022/04/06 11:32:04;;;;;;;1.57;0.33;;;14.30;99.90;;;;;;4984469;28;20663;-79
2022/04/06 11:34:38;;;;;;;1.37;1.03;;;14.00;99.90;;;;;;4985531;28;20243;-79
2022/04/06 11:37:07;;;;;;;0.50;0.33;;;13.90;99.90;;;;;;4986353;28;20183;-79
2022/04/06 11:39:33;;;;;;;0.30;0.30;;;14.00;99.90;;;;;;4986947;28;20530;-79
2022/04/06 11:42:06;;;;;;;1.53;1.03;;;14.30;99.90;;;;;;4986883;28;20183;-79
2022/04/06 11:44:33;;;;;;;1.60;1.47;;;14.70;99.90;;;;;;4988602;28;20238;-80
2022/04/06 11:46:59;;;;;;;0.50;0.50;;;14.70;99.90;;;;;;4986497;28;20227;-79
2022/04/06 11:49:32;;;;;;;0.97;0.60;;;14.70;99.90;;;;;;4986489;28;20188;-79
2022/04/06 11:51:58;;;;;;;0.23;0.23;;;14.60;99.90;;;;;;5001134;28;20175;-79
2022/04/06 11:54:25;;;;;;;0.27;0.27;;;14.60;99.90;;;;;;4985173;28;20836;-79
2022/04/06 11:56:52;;;;;;;0.60;0.60;;;14.80;99.90;;;;;;4987415;28;20187;-79
2022/04/06 11:59:22;;;;;;;0.47;0.37;;;15.10;99.90;;;;;;4986626;28;20195;-79
2022/04/06 12:01:50;;;;;;;0.77;0.53;;;15.00;99.90;;;;;;4985627;28;20186;-79
2022/04/06 12:04:21;;;;;;;0.10;0.10;;;14.90;99.90;;;;;;4985485;28;20199;-79
2022/04/06 12:06:47;;;;;;;0.20;0.20;;;14.90;99.90;;;;;;4985124;28;20230;-79
2022/04/06 12:09:13;;;;;;;0.10;0.10;;;15.00;99.90;;;;;;4984860;28;20658;-78
2022/04/06 12:11:39;;;;;;;1.47;0.37;;;15.20;99.90;;;;;;4994110;28;20210;-79
2022/04/06 12:14:10;;;;;;;0.23;0.23;;;15.60;99.90;;;;;;4985120;28;20653;-79
2022/04/06 12:16:40;;;;;;;0.30;0.30;;;15.80;99.90;;;;;;4986352;28;20198;-79
2022/04/06 12:19:12;;;;;;;0.83;0.73;;;16.10;99.90;;;;;;5003716;28;20192;-81
2022/04/06 12:21:46;;;;;;;0.27;0.23;;;16.40;99.90;;;;;;4986444;28;20173;-79
2022/04/06 12:24:12;;;;;;;0.20;0.20;;;16.20;99.90;;;;;;4982516;28;20671;-79
2022/04/06 12:26:50;;;;;;;1.30;0.53;;;16.20;99.90;;;;;;4978648;28;20717;-79
2022/04/06 12:29:16;;;;;;;0.37;0.37;;;16.20;99.90;;;;;;4979209;28;20789;-79
2022/04/06 12:31:43;;;;;;;0.30;0.30;;;16.40;99.90;;;;;;4985989;28;20264;-79
2022/04/06 12:34:33;;;;;;;0.10;0.10;;;16.20;99.90;;;;;;4986375;28;20189;-79
2022/04/06 12:36:59;;;;;;;0.40;0.40;;;16.10;99.90;;;;;;4975256;28;20200;-79
2022/04/06 12:39:25;;;;;;;2.73;0.67;;;16.20;99.90;;;;;;4985144;28;20177;-79
2022/04/06 12:41:57;;;;;;;0.20;0.20;;;16.00;99.90;;;;;;4994691;28;20193;-79
2022/04/06 12:44:23;;;;;;;0.10;0.10;;;15.80;99.90;;;;;;4986523;28;20178;-80
2022/04/06 12:46:50;;;;;;;0.20;0.20;;;15.90;99.90;;;;;;4987072;28;20719;-80
2022/04/06 12:49:29;;;;;;;0.10;0.10;;;15.80;99.90;;;;;;4983993;28;20283;-80
2022/04/06 12:52:23;;;;;;;0.10;0.10;;;15.90;99.90;;;;;;4985287;28;20189;-79
2022/04/06 12:55:00;;;;;;;0.30;0.30;;;15.70;99.90;;;;;;4984508;28;20201;-79
2022/04/06 12:57:25;;;;;;;6.30;0.50;;;15.70;99.90;;;;;;4985656;28;20185;-80
2022/04/06 12:59:56;;;;;;;0.30;0.30;;;15.60;99.90;;;;;;4986944;28;20177;-79